Ramon Llull — ECDI — position and weather

sailwx.info

Track history (hours):
 
Tides and Currents Weather Stations Pressure Air Temp Water Temp Dewpoint Dewpoint Depression Visibility Wind Speed Wind Dir Waves Ship Positions

Ramon Llull

Last reported at 2018-Jul-15 18:12 UTC. Time now 2018-Jul-17 15:15 UTC.
Position N 38°45' E 001°22'.

Length 83 m; draft 1.8 m.

Type: High speed craft. MMSI: 224247000.

Date/timePositionNaut miles runAvg speedWind from/ knotsBaromVisibWave heightAir tempDewpointWater temp
2018-Jul-15 18:12N 38°45' E 001°22'3 0.5
2018-Jul-15 11:39N 38°48' E 001°24'424.2
2018-Jul-15 11:29N 38°51' E 001°27'3 3.0
2018-Jul-15 10:25N 38°54' E 001°27'  
2018-Jul-12 19:28N 38°46' E 001°07'8 5.3
2018-Jul-12 18:01N 38°45' E 001°17'126.2
2018-Jul-12 18:00N 38°45' E 001°16'40 1.9
2018-Jul-11 20:48N 38°51' E 000°25'826.1
2018-Jul-11 20:30N 38°50' E 000°35'1325.9
2018-Jul-11 20:00N 38°48' E 000°51'5 0.6
2018-Jul-11 11:15N 38°48' E 000°45'16 0.4
2018-Jul-09 20:50N 38°51' E 000°25'925.0
2018-Jul-09 20:28N 38°49' E 000°36'1625.0
2018-Jul-09 19:51N 38°47' E 000°56'925.2
2018-Jul-09 19:30N 38°46' E 001°07'1325.1
2018-Jul-09 19:00N 38°45' E 001°23'2 3.0
2018-Jul-09 18:30N 38°44' E 001°25'817.0
2018-Jul-09 18:00N 38°46' E 001°14'1326.4
2018-Jul-09 17:30N 38°47' E 000°58'1326.4
2018-Jul-09 17:00N 38°49' E 000°41'1426.4
2018-Jul-09 16:29N 38°50' E 000°23'6 1.4
2018-Jul-09 12:15N 38°52' E 000°16'725.9
2018-Jul-09 11:59N 38°51' E 000°24'1326.1
2018-Jul-09 11:30N 38°49' E 000°40'1926.2
2018-Jul-09 10:48N 38°47' E 001°04'826.4
2018-Jul-09 10:30N 38°46' E 001°14'911.3
2018-Jul-09 09:43N 38°44' E 001°25'0 1.5
2018-Jul-09 09:30N 38°44' E 001°25'1322.6
2018-Jul-09 08:55N 38°46' E 001°08'1524.6
2018-Jul-09 08:19N 38°48' E 000°49'18 1.6
2018-Jul-08 20:43N 38°50' E 000°26'625.8
2018-Jul-08 20:29N 38°50' E 000°33'1225.5
2018-Jul-08 20:00N 38°48' E 000°49'1425.7
2018-Jul-08 19:29N 38°46' E 001°06'1513.8
2018-Jul-08 18:24N 38°44' E 001°25'717.4
2018-Jul-08 18:00N 38°46' E 001°17'1326.2
2018-Jul-08 17:30N 38°47' E 001°00'2426.1
2018-Jul-08 16:36N 38°50' E 000°30'225.9
2018-Jul-08 16:30N 38°50' E 000°27'47 9.2
2018-Jul-08 11:27N 38°52' E 001°27'1 1.1
2018-Jul-08 10:23N 38°53' E 001°27'33 2.4
2018-Jul-07 20:14N 38°49' E 000°44'1226.2
2018-Jul-07 19:48N 38°47' E 000°59'1026.4
2018-Jul-07 19:26N 38°46' E 001°11'5 2.9
2018-Jul-07 17:42N 38°46' E 001°05'31 1.5
2018-Jul-06 20:40N 38°51' E 000°25'427.0
2018-Jul-06 20:30N 38°50' E 000°31'3027.0
2018-Jul-06 19:23N 38°46' E 001°10'1026.9
2018-Jul-06 19:00N 38°45' E 001°22'2 4.6
2018-Jul-06 18:30N 38°44' E 001°25'1220.9
2018-Jul-06 17:55N 38°46' E 001°10'1425.9
2018-Jul-06 17:23N 38°47' E 000°52'1126.1
2018-Jul-06 16:58N 38°49' E 000°38'13 2.5
2018-Jul-06 11:58N 38°51' E 000°22'1226.3
2018-Jul-06 11:30N 38°49' E 000°37'10 0.7
2018-Jul-05 20:50N 38°50' E 000°25'925.3
2018-Jul-05 20:29N 38°49' E 000°36'3920.4
2018-Jul-05 18:36N 38°44' E 001°25'213.1
2018-Jul-05 18:28N 38°46' E 001°24'  
Track history (hours):
 
Tides and Currents Weather Stations Pressure Air Temp Water Temp Dewpoint Dewpoint Depression Visibility Wind Speed Wind Dir Waves Ship Positions

Ramon Llull

Last reported at 2018-Jul-15 18:12 UTC. Time now 2018-Jul-17 15:15 UTC.
Position N 38°45' E 001°22'.

Length 83 m; draft 1.8 m.

Type: High speed craft. MMSI: 224247000.

Date/timePositionNaut miles runAvg speedWind from/ knotsBaromVisibWave heightAir tempDewpointWater temp
2018-Jul-15 18:12N 38°45' E 001°22'3 0.5
2018-Jul-15 11:39N 38°48' E 001°24'424.2
2018-Jul-15 11:29N 38°51' E 001°27'3 3.0
2018-Jul-15 10:25N 38°54' E 001°27'  
2018-Jul-12 19:28N 38°46' E 001°07'8 5.3
2018-Jul-12 18:01N 38°45' E 001°17'126.2
2018-Jul-12 18:00N 38°45' E 001°16'40 1.9
2018-Jul-11 20:48N 38°51' E 000°25'826.1
2018-Jul-11 20:30N 38°50' E 000°35'1325.9
2018-Jul-11 20:00N 38°48' E 000°51'5 0.6
2018-Jul-11 11:15N 38°48' E 000°45'16 0.4
2018-Jul-09 20:50N 38°51' E 000°25'925.0
2018-Jul-09 20:28N 38°49' E 000°36'1625.0
2018-Jul-09 19:51N 38°47' E 000°56'925.2
2018-Jul-09 19:30N 38°46' E 001°07'1325.1
2018-Jul-09 19:00N 38°45' E 001°23'2 3.0
2018-Jul-09 18:30N 38°44' E 001°25'817.0
2018-Jul-09 18:00N 38°46' E 001°14'1326.4
2018-Jul-09 17:30N 38°47' E 000°58'1326.4
2018-Jul-09 17:00N 38°49' E 000°41'1426.4
2018-Jul-09 16:29N 38°50' E 000°23'6 1.4
2018-Jul-09 12:15N 38°52' E 000°16'725.9
2018-Jul-09 11:59N 38°51' E 000°24'1326.1
2018-Jul-09 11:30N 38°49' E 000°40'1926.2
2018-Jul-09 10:48N 38°47' E 001°04'826.4
2018-Jul-09 10:30N 38°46' E 001°14'911.3
2018-Jul-09 09:43N 38°44' E 001°25'0 1.5
2018-Jul-09 09:30N 38°44' E 001°25'1322.6
2018-Jul-09 08:55N 38°46' E 001°08'1524.6
2018-Jul-09 08:19N 38°48' E 000°49'18 1.6
2018-Jul-08 20:43N 38°50' E 000°26'625.8
2018-Jul-08 20:29N 38°50' E 000°33'1225.5
2018-Jul-08 20:00N 38°48' E 000°49'1425.7
2018-Jul-08 19:29N 38°46' E 001°06'1513.8
2018-Jul-08 18:24N 38°44' E 001°25'717.4
2018-Jul-08 18:00N 38°46' E 001°17'1326.2
2018-Jul-08 17:30N 38°47' E 001°00'2426.1
2018-Jul-08 16:36N 38°50' E 000°30'225.9
2018-Jul-08 16:30N 38°50' E 000°27'47 9.2
2018-Jul-08 11:27N 38°52' E 001°27'1 1.1
2018-Jul-08 10:23N 38°53' E 001°27'33 2.4
2018-Jul-07 20:14N 38°49' E 000°44'1226.2
2018-Jul-07 19:48N 38°47' E 000°59'1026.4
2018-Jul-07 19:26N 38°46' E 001°11'5 2.9
2018-Jul-07 17:42N 38°46' E 001°05'31 1.5
2018-Jul-06 20:40N 38°51' E 000°25'427.0
2018-Jul-06 20:30N 38°50' E 000°31'3027.0
2018-Jul-06 19:23N 38°46' E 001°10'1026.9
2018-Jul-06 19:00N 38°45' E 001°22'2 4.6
2018-Jul-06 18:30N 38°44' E 001°25'1220.9
2018-Jul-06 17:55N 38°46' E 001°10'1425.9
2018-Jul-06 17:23N 38°47' E 000°52'1126.1
2018-Jul-06 16:58N 38°49' E 000°38'13 2.5
2018-Jul-06 11:58N 38°51' E 000°22'1226.3
2018-Jul-06 11:30N 38°49' E 000°37'10 0.7
2018-Jul-05 20:50N 38°50' E 000°25'925.3
2018-Jul-05 20:29N 38°49' E 000°36'3920.4
2018-Jul-05 18:36N 38°44' E 001°25'213.1
2018-Jul-05 18:28N 38°46' E 001°24'  

Dump ship's entire track history